West Palm Beach, FL (33406)

2:36 AM EDT on August 05, 2015 (GMT -0400)
SFWMD | | Change Station
CLOSE
Current Station
Personal Weather Station
Location: West Palm Beach, FL
Elevation: 16 ft
Nearby Weather Stations

Elev 16 ft 26.65 °N, 80.07 °W | Updated 51 minutes ago

Scattered Clouds
Scattered Clouds
80 °F
Feels Like 85 °F
N
1
Wind Variable Wind from SW
Gusts 2.0 mph

Today
High -- | Low -- °F
--% Chance of Precip.
Yesterday
High -- | Low -- °F
Precip. -- in
6:47 AM 8:05 PM
Waning Gibbous, 70% visible
Pressure 30.09 in
Visibility 10.0 miles
Clouds Few 2600 ft
Scattered Clouds 25000 ft
Heat Index 85 °F
Dew Point 75 °F
Humidity 84%
Rainfall in
Snow Depth Not available.
UV 0 out of 12
Pollen 3.40 out of 12
Air Quality Not available.
Flu Activity Not available.
METAR KPBI 050553Z 00000KT 10SM FEW026 SCT250 27/24 A3009 RMK AO2 SLP190 T02670239 10294 20256 58001

More Conditions Fewer Conditions

Pressure 30.09 in
Visibility 10.0 miles
Clouds Few 2600 ft
Scattered Clouds 25000 ft
Heat Index 85 °F
Dew Point 75 °F
Humidity 84%
Rainfall in
Snow Depth Not available.
UV 0 out of 12
Pollen 3.40 out of 12
Air Quality Not available.
Flu Activity Not available.
METAR KPBI 050553Z 00000KT 10SM FEW026 SCT250 27/24 A3009 RMK AO2 SLP190 T02670239 10294 20256 58001

More Conditions Fewer Conditions

10-Day Weather Forecast

×

Almanac

Astronomy

Aug. 05, 2015 Rise Set
Actual Time
Civil Twilight
Nautical Twilight
Astronomical Twilight
Moon
Length of Visible Light
Length of Day
Tomorrow will be .
, % of the Moon is Illuminated

Today's Extremes

State Highs State Lows

Community

WunderPhotos

Upload Photos

1,844,105 photos uploaded!

WunderBlogs® & News

Nearby

Air Quality

  Air Quality AQ Index Pollutant
Not available.

Snow Depth

Station Depth Elevation

Earthquake Activity

City Distance Mag. Time & Date
Minimum magnitude displayed is 2.5.

Coastal Water Temperatures

Place Temperature

Stations

Nearby Weather Stations

Station Location Temp. Windchill Dew Point Humidity Wind Precip. Elev Updated Type